Time;durP1;ratioP1;P1;durP2;ratioP2;P2;SDS_P1;SDS_P2;PMS_P1;PMS_P2;Temp;Humidity;BMP_temperature;BMP_pressure;BME280_temperature;BME280_humidity;BME280_pressure;Samples;Min_cycle;Max_cycle;Signal;HPM_P1;HPM_P2
2022/11/12 00:02:20;;;;;;;30.10;9.43;;;;;;;4.42;100.00;97915.34;5029402;28;101696;-69
2022/11/12 00:05:31;;;;;;;10.80;9.73;;;;;;;4.51;100.00;97924.00;5030059;28;103380;-69
2022/11/12 00:08:17;;;;;;;21.60;14.83;;;;;;;4.47;100.00;97922.75;5029773;28;102612;-69
2022/11/12 00:11:03;;;;;;;10.43;9.33;;;;;;;4.51;100.00;97924.00;5026848;28;102090;-69
2022/11/12 00:17:32;;;;;;;11.47;10.03;;;;;;;4.53;100.00;97919.41;5028923;28;101745;-69
2022/11/12 00:20:18;;;;;;;11.60;10.10;;;;;;;4.61;100.00;97925.44;5032247;28;102099;-69
2022/11/12 00:23:10;;;;;;;11.57;9.33;;;;;;;4.58;100.00;97922.34;5032072;28;102242;-69
2022/11/12 00:26:00;;;;;;;10.63;9.53;;;;;;;4.45;100.00;97924.72;5033149;28;101790;-69
2022/11/12 00:28:46;;;;;;;12.93;10.23;;;;;;;4.50;100.00;97917.09;5030234;28;102053;-69
2022/11/12 00:31:33;;;;;;;11.00;9.90;;;;;;;4.58;100.00;97922.34;5031753;28;102222;-69
2022/11/12 00:34:20;;;;;;;11.50;10.13;;;;;;;4.67;100.00;97922.09;5036362;28;101675;-69
2022/11/12 00:37:06;;;;;;;11.90;10.67;;;;;;;4.77;100.00;97920.03;5028625;28;102375;-69
2022/11/12 00:39:52;;;;;;;10.80;9.60;;;;;;;4.82;100.00;97932.69;5032189;28;101667;-69
2022/11/12 00:43:18;;;;;;;10.73;9.63;;;;;;;4.65;100.00;97931.16;5033328;28;102210;-69
2022/11/12 00:46:03;;;;;;;9.63;8.63;;;;;;;4.61;100.00;97930.69;5030323;28;102234;-69
2022/11/12 00:48:48;;;;;;;10.80;9.70;;;;;;;4.62;100.00;97921.78;5029332;28;102102;-69
2022/11/12 00:51:50;;;;;;;15.80;10.27;;;;;;;4.69;100.00;97916.66;5033095;28;102045;-69
2022/11/12 00:54:35;;;;;;;11.63;10.40;;;;;;;4.69;100.00;97914.81;5031559;28;102250;-69
2022/11/12 00:57:21;;;;;;;13.03;10.80;;;;;;;4.59;100.00;97905.53;5031944;28;101708;-69
2022/11/12 01:00:08;;;;;;;42.30;12.17;;;;;;;4.62;100.00;97910.44;5031245;28;102124;-69
2022/11/12 01:02:56;;;;;;;23.27;10.63;;;;;;;4.67;100.00;97905.44;5031732;28;101792;-69
2022/11/12 01:06:09;;;;;;;15.17;8.97;;;;;;;4.62;100.00;97899.88;5028327;28;102080;-69
2022/11/12 01:08:56;;;;;;;10.97;9.13;;;;;;;4.64;100.00;97908.47;5032053;28;102250;-69
2022/11/12 01:12:22;;;;;;;10.50;9.00;;;;;;;4.76;100.00;97907.03;5032583;28;101645;-69
2022/11/12 01:15:08;;;;;;;9.30;8.20;;;;;;;4.67;100.00;97903.66;5032737;28;102084;-69
2022/11/12 01:17:53;;;;;;;10.57;7.80;;;;;;;4.51;100.00;97897.66;5031965;28;102348;-69
2022/11/12 01:20:39;;;;;;;7.83;7.13;;;;;;;4.52;100.00;97894.03;5029274;28;101811;-69
2022/11/12 01:27:07;;;;;;;7.30;6.70;;;;;;;4.33;100.00;97890.06;5031882;28;102298;-69
2022/11/12 01:29:53;;;;;;;14.20;8.30;;;;;;;4.40;100.00;97883.09;5032261;28;102060;-69
2022/11/12 01:36:55;;;;;;;8.13;7.33;;;;;;;4.37;100.00;97885.28;5028882;28;101733;-69
2022/11/12 01:39:41;;;;;;;8.50;7.70;;;;;;;4.49;100.00;97887.34;5029158;28;102049;-69
2022/11/12 01:42:53;;;;;;;8.60;7.70;;;;;;;4.29;100.00;97872.16;5028453;28;102265;-69
2022/11/12 01:45:43;;;;;;;8.77;7.87;;;;;;;4.37;100.00;97867.63;5031286;28;103088;-69
2022/11/12 01:48:33;;;;;;;8.47;7.67;;;;;;;4.36;100.00;97862.56;5029041;28;102029;-69
2022/11/12 01:51:21;;;;;;;8.03;7.33;;;;;;;4.47;100.00;97862.97;5031225;28;102373;-69
2022/11/12 01:54:10;;;;;;;8.20;7.40;;;;;;;4.51;100.00;97860.78;5035708;28;101667;-69
2022/11/12 01:56:58;;;;;;;7.50;6.90;;;;;;;4.56;100.00;97853.19;5031357;28;102223;-69
2022/11/12 01:59:50;;;;;;;7.73;7.03;;;;;;;4.50;100.00;97848.63;5032035;28;101698;-69
2022/11/12 02:02:40;;;;;;;7.17;6.57;;;;;;;4.26;100.00;97849.63;5028639;28;102101;-69
2022/11/12 02:05:46;;;;;;;6.90;6.40;;;;;;;4.47;100.00;97862.16;5027880;28;102322;-69
2022/11/12 02:08:34;;;;;;;6.67;6.07;;;;;;;4.40;100.00;97850.66;5028483;28;103325;-69
2022/11/12 02:11:21;;;;;;;6.70;6.13;;;;;;;4.34;100.00;97861.91;5028620;28;102068;-69
2022/11/12 02:14:06;;;;;;;6.57;6.03;;;;;;;4.34;100.00;97849.56;5027639;28;102656;-69
2022/11/12 02:16:53;;;;;;;7.07;6.37;;;;;;;4.45;100.00;97845.69;5032009;28;102224;-69
2022/11/12 02:19:39;;;;;;;6.70;6.20;;;;;;;4.29;100.00;97836.13;5027556;28;102350;-69
2022/11/12 02:22:26;;;;;;;6.23;5.73;;;;;;;4.22;100.00;97840.44;5028557;28;101783;-69
2022/11/12 02:25:14;;;;;;;6.20;5.70;;;;;;;4.29;100.00;97830.84;5028101;28;102069;-69
2022/11/12 02:28:00;;;;;;;6.80;6.30;;;;;;;4.30;100.00;97831.66;5027712;28;102216;-69
2022/11/12 02:30:48;;;;;;;6.03;5.53;;;;;;;4.28;100.00;97831.00;5007989;28;101755;-69
2022/11/12 02:33:35;;;;;;;6.10;5.60;;;;;;;4.13;100.00;97820.44;5011641;28;102086;-69
2022/11/12 02:37:10;;;;;;;6.50;6.00;;;;;;;4.15;100.00;97825.53;5007553;28;102298;-69
2022/11/12 02:39:57;;;;;;;7.10;6.50;;;;;;;4.25;100.00;97820.84;5008012;28;101679;-69
2022/11/12 02:46:24;;;;;;;7.40;6.23;;;;;;;4.23;100.00;97830.72;5009738;28;101940;-69
2022/11/12 02:49:09;;;;;;;7.13;6.43;;;;;;;4.35;100.00;97835.41;5017455;28;103095;-69
2022/11/12 02:52:10;;;;;;;10.67;7.07;;;;;;;4.13;100.00;97838.03;5027383;28;102233;-69
2022/11/12 02:54:57;;;;;;;6.50;5.90;;;;;;;4.08;100.00;97837.72;5028029;28;101724;-69
2022/11/12 02:57:43;;;;;;;8.93;7.03;;;;;;;4.06;100.00;97839.72;5027874;28;102617;-69
2022/11/12 03:00:29;;;;;;;7.63;6.13;;;;;;;4.04;100.00;97841.72;5026994;28;102253;-69
2022/11/12 03:03:26;;;;;;;7.13;6.53;;;;;;;4.02;100.00;97854.22;5027943;28;101675;-69
2022/11/12 03:06:14;;;;;;;6.70;6.03;;;;;;;4.04;100.00;97858.31;5028081;28;102027;-69
2022/11/12 03:09:00;;;;;;;6.83;6.23;;;;;;;4.13;100.00;97856.44;5030555;28;102224;-69
2022/11/12 03:11:46;;;;;;;6.80;6.10;;;;;;;4.12;100.00;97860.09;5027809;28;102108;-69
2022/11/12 03:14:32;;;;;;;6.73;6.13;;;;;;;3.99;100.00;97871.19;5027200;28;102206;-69
2022/11/12 03:17:18;;;;;;;6.90;6.30;;;;;;;4.10;100.00;97869.97;5027703;28;101833;-69
2022/11/12 03:20:05;;;;;;;6.47;5.97;;;;;;;4.12;100.00;97867.97;5027580;28;102567;-69
2022/11/12 03:23:33;;;;;;;7.17;6.33;;;;;;;4.18;100.00;97865.47;5026915;28;102194;-69
2022/11/12 03:26:18;;;;;;;6.83;5.90;;;;;;;4.26;100.00;97864.63;5027208;28;101931;-69
2022/11/12 03:29:05;;;;;;;6.97;6.27;;;;;;;4.29;100.00;97861.63;5027095;28;102069;-69
2022/11/12 03:32:16;;;;;;;6.90;6.30;;;;;;;4.26;100.00;97864.63;5027024;28;102228;-69
2022/11/12 03:35:03;;;;;;;16.63;6.50;;;;;;;4.13;100.00;97867.81;5030977;28;101658;-69
2022/11/12 03:37:48;;;;;;;10.73;6.40;;;;;;;4.15;100.00;97867.66;5011522;28;102316;-69
2022/11/12 03:40:34;;;;;;;6.57;5.97;;;;;;;4.16;100.00;97866.66;5027313;28;101656;-69
2022/11/12 03:43:52;;;;;;;7.10;6.50;;;;;;;4.20;100.00;97870.56;5027241;28;102100;-69
2022/11/12 03:46:40;;;;;;;6.77;6.17;;;;;;;4.23;100.00;97865.78;5032475;28;102731;-69
2022/11/12 03:49:25;;;;;;;9.60;6.97;;;;;;;4.22;100.00;97868.59;5030802;28;101862;-69
2022/11/12 03:52:44;;;;;;;6.37;5.87;;;;;;;4.14;100.00;97866.81;5030506;28;103285;-69
2022/11/12 03:55:30;;;;;;;7.23;6.53;;;;;;;4.15;100.00;97862.38;5030224;28;101830;-69
2022/11/12 03:58:16;;;;;;;7.20;6.50;;;;;;;4.16;100.00;97861.38;5010538;28;101667;-69
2022/11/12 04:01:01;;;;;;;7.47;6.77;;;;;;;4.22;100.00;97856.25;5015841;28;103225;-69
2022/11/12 04:04:09;;;;;;;9.87;6.00;;;;;;;4.11;100.00;97858.44;5030456;28;102740;-69
2022/11/12 04:10:33;;;;;;;86.20;7.63;;;;;;;3.79;100.00;97854.19;5032192;28;102216;-69
2022/11/12 04:13:27;;;;;;;18.87;6.30;;;;;;;3.75;100.00;97858.16;5030195;28;101741;-69
2022/11/12 04:23:15;;;;;;;7.23;6.67;;;;;;;3.86;100.00;97859.56;5033185;28;101867;-69
2022/11/12 04:32:53;;;;;;;29.23;7.70;;;;;;;3.69;100.00;97844.88;5033281;28;102053;-69
2022/11/12 04:36:20;;;;;;;7.73;7.07;;;;;;;3.74;100.00;97845.16;5029451;28;102335;-69
2022/11/12 04:39:07;;;;;;;8.00;7.30;;;;;;;3.67;100.00;97846.88;5030035;28;101785;-69
2022/11/12 04:45:02;;;;;;;7.97;7.13;;;;;;;3.84;100.00;97856.31;5032297;28;102232;-69
2022/11/12 04:47:48;;;;;;;7.50;6.90;;;;;;;3.85;100.00;97847.41;5029840;28;101994;-69
2022/11/12 04:50:34;;;;;;;8.03;7.23;;;;;;;3.77;100.00;97839.59;5029951;28;102057;-69
2022/11/12 04:53:24;;;;;;;7.40;6.80;;;;;;;3.67;100.00;97844.22;5032785;28;102182;-69
2022/11/12 04:56:11;;;;;;;6.77;6.20;;;;;;;3.63;100.00;97837.66;5029017;27;102076;-69
2022/11/12 04:58:56;;;;;;;6.93;6.23;;;;;;;3.50;100.00;97835.59;5029009;28;102268;-69
2022/11/12 05:02:12;;;;;;;7.33;6.53;;;;;;;3.55;100.00;97842.97;5029489;28;101658;-69
2022/11/12 05:05:24;;;;;;;6.70;6.10;;;;;;;3.45;100.00;97845.00;5029654;28;102037;-69
2022/11/12 05:08:10;;;;;;;63.40;8.40;;;;;;;3.42;100.00;97840.06;5028896;28;102237;-69
2022/11/12 05:10:56;;;;;;;10.07;6.37;;;;;;;3.32;100.00;97840.25;5029229;28;101668;-69
2022/11/12 05:13:46;;;;;;;30.67;7.53;;;;;;;3.29;100.00;97837.16;5029593;28;102041;-69
2022/11/12 05:16:32;;;;;;;17.03;7.87;;;;;;;3.32;100.00;97840.25;5028610;28;102266;-69
2022/11/12 05:19:18;;;;;;;7.00;6.40;;;;;;;3.29;100.00;97839.78;5032943;28;101714;-69
2022/11/12 05:22:38;;;;;;;7.10;6.40;;;;;;;3.37;100.00;97839.75;5028904;28;102201;-69
2022/11/12 05:25:24;;;;;;;9.80;6.90;;;;;;;3.25;100.00;97846.38;5029168;28;101681;-69
2022/11/12 05:28:10;;;;;;;27.77;6.90;;;;;;;3.47;100.00;97846.47;5029336;28;102092;-69
2022/11/12 05:30:57;;;;;;;7.57;6.97;;;;;;;3.36;100.00;97846.00;5028691;28;102204;-69
2022/11/12 05:34:13;;;;;;;7.40;6.70;;;;;;;3.35;100.00;97841.75;5029193;28;102104;-69
2022/11/12 05:37:00;;;;;;;7.40;6.70;;;;;;;3.20;100.00;97843.41;5009025;28;102047;-69
2022/11/12 05:39:46;;;;;;;7.10;6.40;;;;;;;3.20;100.00;97856.56;5010082;28;102216;-69
2022/11/12 05:42:33;;;;;;;7.03;6.43;;;;;;;3.30;100.00;97851.94;5029121;28;101901;-69
2022/11/12 05:45:18;;;;;;;13.83;6.57;;;;;;;3.33;100.00;97859.50;5032365;28;102149;-69
2022/11/12 05:48:05;;;;;;;7.00;6.40;;;;;;;3.21;100.00;97872.19;5028778;28;101706;-69
2022/11/12 05:50:52;;;;;;;7.10;6.50;;;;;;;3.22;100.00;97873.81;5029046;28;102092;-69
2022/11/12 05:53:46;;;;;;;6.67;6.17;;;;;;;3.27;100.00;97866.25;5008144;28;102258;-69
2022/11/12 05:56:33;;;;;;;6.47;5.97;;;;;;;3.30;100.00;97879.06;5008692;28;101822;-69
2022/11/12 05:59:18;;;;;;;6.60;5.97;;;;;;;3.32;100.00;97886.75;5009060;28;102048;-69
2022/11/12 06:02:57;;;;;;;10.97;5.93;;;;;;;3.28;100.00;97888.09;5017428;28;102335;-69
2022/11/12 06:09:30;;;;;;;6.53;6.03;;;;;;;3.30;100.00;97888.75;5008184;28;102079;-69
2022/11/12 06:12:43;;;;;;;7.07;6.40;;;;;;;3.10;100.00;97900.59;5011329;28;102214;-69
2022/11/12 06:15:29;;;;;;;14.40;6.20;;;;;;;3.27;100.00;97908.31;5024566;28;102031;-69
2022/11/12 06:18:15;;;;;;;6.33;5.83;;;;;;;3.15;100.00;97904.41;5027787;28;102337;-69
2022/11/12 06:21:21;;;;;;;6.03;5.53;;;;;;;3.15;100.00;97900.94;5008917;28;102283;-69
2022/11/12 06:24:07;;;;;;;5.77;5.30;;;;;;;3.26;100.00;97908.47;5028137;28;102043;-69
2022/11/12 06:26:54;;;;;;;5.63;5.23;;;;;;;3.13;100.00;97905.56;5027507;28;102224;-69
2022/11/12 06:29:40;;;;;;;6.77;6.20;;;;;;;3.12;100.00;97896.81;5028288;28;101665;-69
2022/11/12 06:32:36;;;;;;;6.20;5.70;;;;;;;3.09;100.00;97902.44;5028195;28;102052;-69
2022/11/12 06:39:04;;;;;;;6.40;5.90;;;;;;;3.38;100.00;97907.16;5011265;28;101621;-69
2022/11/12 06:41:50;;;;;;;7.17;6.57;;;;;;;3.27;100.00;97904.88;5007343;28;102225;-69
2022/11/12 06:44:36;;;;;;;6.33;5.73;;;;;;;3.49;100.00;97912.84;5010747;28;102026;-71
2022/11/12 06:47:22;;;;;;;7.17;6.50;;;;;;;3.54;100.00;97907.06;5007572;28;102065;-69
2022/11/12 06:50:09;;;;;;;7.13;6.43;;;;;;;3.31;100.00;97904.34;5009623;28;103821;-69
2022/11/12 06:52:58;;;;;;;6.90;6.20;;;;;;;3.41;100.00;97904.16;5007617;28;101720;-69
2022/11/12 06:55:44;;;;;;;6.20;5.70;;;;;;;3.48;100.00;97903.31;5007703;28;102056;-69
2022/11/12 06:58:30;;;;;;;5.97;5.47;;;;;;;3.64;100.00;97903.25;5007122;28;102264;-69
2022/11/12 07:01:17;;;;;;;6.90;6.30;;;;;;;3.71;100.00;97892.88;5021526;28;101664;-69
2022/11/12 07:04:19;;;;;;;6.53;5.93;;;;;;;3.83;100.00;97904.66;5030319;28;102104;-69
2022/11/12 07:10:46;;;;;;;6.97;6.43;;;;;;;3.82;100.00;97895.16;5027234;28;101700;-69
2022/11/12 07:13:36;;;;;;;7.57;6.87;;;;;;;3.80;100.00;97897.09;5026681;28;102315;-69
2022/11/12 07:16:24;;;;;;;8.53;7.73;;;;;;;3.89;100.00;97891.66;5027337;28;101649;-69
2022/11/12 07:19:09;;;;;;;9.57;8.37;;;;;;;4.03;100.00;97892.69;5027336;27;102015;-69
2022/11/12 07:21:57;;;;;;;9.07;8.07;;;;;;;4.18;100.00;97893.63;5029979;28;102252;-69
2022/11/12 07:24:43;;;;;;;9.00;7.83;;;;;;;4.18;100.00;97894.44;5030954;28;101719;-69
2022/11/12 07:27:29;;;;;;;7.90;7.27;;;;;;;4.11;100.00;97896.13;5033479;28;102009;-69
2022/11/12 07:30:16;;;;;;;8.23;7.53;;;;;;;3.93;100.00;97898.19;5030974;28;101974;-69
2022/11/12 07:37:25;;;;;;;8.10;7.40;;;;;;;4.12;100.00;97897.78;5029935;28;102149;-69
2022/11/12 07:40:14;;;;;;;8.27;7.53;;;;;;;4.28;100.00;97896.84;5030874;28;101729;-69
2022/11/12 07:43:47;;;;;;;8.10;7.30;;;;;;;4.54;100.00;97898.13;5030499;28;102053;-69
2022/11/12 07:46:33;;;;;;;7.80;7.10;;;;;;;4.64;100.00;97903.19;5026504;28;102280;-71
2022/11/12 07:49:18;;;;;;;7.07;6.47;;;;;;;4.68;100.00;97899.19;5030645;28;101935;-72
2022/11/12 07:52:15;;;;;;;7.83;7.13;;;;;;;4.75;100.00;97895.66;5030905;28;102065;-69
2022/11/12 07:55:00;;;;;;;7.50;6.90;;;;;;;4.83;100.00;97903.50;5032823;28;102283;-72
2022/11/12 07:57:47;;;;;;;7.57;6.97;;;;;;;4.88;100.00;97903.81;5030214;28;101717;-72
2022/11/12 08:00:33;;;;;;;8.37;7.67;;;;;;;4.97;100.00;97920.38;5029396;28;101762;-66
2022/11/12 08:03:20;;;;;;;7.40;6.70;;;;;;;5.05;100.00;97920.28;5016007;27;102168;-66
2022/11/12 08:09:46;;;;;;;7.73;7.03;;;;;;;5.18;100.00;97923.94;5028610;28;103327;-66
2022/11/12 08:12:39;;;;;;;7.93;7.27;;;;;;;5.06;100.00;97924.56;5030369;28;101690;-66
2022/11/12 08:15:26;;;;;;;7.83;7.17;;;;;;;5.11;100.00;97923.03;5030282;28;102040;-66
2022/11/12 08:18:13;;;;;;;8.10;7.40;;;;;;;5.29;100.00;97920.88;5029557;28;102215;-62
2022/11/12 08:21:02;;;;;;;7.67;6.87;;;;;;;5.26;100.00;97909.88;5033504;28;101766;-62
2022/11/12 08:23:55;;;;;;;7.30;6.70;;;;;;;5.40;100.00;97911.72;5029362;28;102221;-63
2022/11/12 08:26:41;;;;;;;8.23;7.53;;;;;;;5.67;100.00;97919.00;5030154;28;101695;-63
2022/11/12 08:29:26;;;;;;;7.00;6.40;;;;;;;5.73;100.00;97913.00;5029883;28;102053;-63
2022/11/12 08:32:20;;;;;;;6.60;6.10;;;;;;;5.75;100.00;97921.53;5027907;28;102162;-63
2022/11/12 08:35:09;;;;;;;7.17;6.47;;;;;;;6.07;100.00;97926.44;5029944;28;101973;-62
2022/11/12 08:37:58;;;;;;;7.07;6.43;;;;;;;6.13;100.00;97928.34;5029556;28;102058;-63
2022/11/12 08:40:43;;;;;;;7.03;6.43;;;;;;;6.17;100.00;97929.63;5029237;28;102207;-63
2022/11/12 08:43:42;;;;;;;7.50;6.80;;;;;;;6.45;100.00;97936.66;5029859;28;101695;-63
2022/11/12 08:46:28;;;;;;;7.33;6.67;;;;;;;6.42;100.00;97930.91;5034977;28;101653;-63
2022/11/12 08:49:15;;;;;;;6.50;6.00;;;;;;;6.59;100.00;97932.31;5029591;28;101658;-63
2022/11/12 08:52:19;;;;;;;7.40;6.67;;;;;;;6.89;100.00;97932.03;5029808;28;102079;-63
2022/11/12 08:55:05;;;;;;;10.63;9.63;;;;;;;7.03;100.00;97931.13;5029350;28;102228;-63
2022/11/12 08:57:51;;;;;;;9.90;8.90;;;;;;;7.04;100.00;97937.25;5029432;28;101674;-65
2022/11/12 09:00:39;;;;;;;6.63;6.03;;;;;;;6.85;100.00;97932.56;5029858;28;102052;-65
2022/11/12 09:03:27;;;;;;;7.80;7.00;;;;;;;6.82;100.00;97935.63;5028803;28;102253;-65
2022/11/12 09:06:21;;;;;;;7.50;6.30;;;;;;;7.19;100.00;97938.78;5030199;27;101921;-65
2022/11/12 09:09:06;;;;;;;6.73;5.60;;;;;;;7.51;100.00;97940.03;5029450;28;102043;-65
2022/11/12 09:12:06;;;;;;;6.00;5.30;;;;;;;7.57;100.00;97937.44;5032071;28;102286;-65
2022/11/12 09:14:52;;;;;;;6.63;5.20;;;;;;;7.79;100.00;97932.91;5029349;28;102071;-65
2022/11/12 09:17:37;;;;;;;6.37;5.27;;;;;;;7.93;100.00;97935.41;5028580;28;102311;-65
2022/11/12 09:20:22;;;;;;;6.37;4.67;;;;;;;8.16;100.00;97927.16;5009332;28;101928;-65
2022/11/12 09:23:16;;;;;;;5.67;4.60;;;;;;;8.11;100.00;97930.41;5009190;28;102054;-65
2022/11/12 09:26:02;;;;;;;5.23;4.67;;;;;;;8.35;100.00;97937.06;5008782;28;102199;-65
2022/11/12 09:28:48;;;;;;;4.90;4.40;;;;;;;8.14;100.00;97926.53;5008874;28;101689;-65
2022/11/12 09:31:38;;;;;;;6.47;4.90;;;;;;;8.26;100.00;97930.28;5009161;28;102042;-65
2022/11/12 09:34:23;;;;;;;5.50;4.60;;;;;;;8.46;100.00;97925.88;5025708;28;102233;-65
2022/11/12 09:37:09;;;;;;;5.77;5.17;;;;;;;8.73;100.00;97927.56;5032481;28;101633;-65
2022/11/12 09:39:56;;;;;;;5.13;4.60;;;;;;;8.83;100.00;97928.81;5028409;28;102286;-65
2022/11/12 09:46:33;;;;;;;6.03;4.30;;;;;;;9.07;100.00;97930.06;5030761;28;101969;-65
2022/11/12 09:49:23;;;;;;;4.70;4.30;;;;;;;9.12;100.00;97928.44;5028393;28;102221;-65
2022/11/12 09:52:26;;;;;;;4.70;4.30;;;;;;;8.95;100.00;97915.78;5028597;28;101803;-65
2022/11/12 09:55:21;;;;;;;4.90;4.50;;;;;;;9.02;100.00;97921.88;5028869;28;102051;-65
2022/11/12 09:58:12;;;;;;;5.60;4.90;;;;;;;9.20;100.00;97907.00;5028044;28;102229;-65
2022/11/12 10:01:16;;;;;;;5.00;4.60;;;;;;;9.39;100.00;97911.47;5031800;28;101837;-65
2022/11/12 10:04:27;;;;;;;5.20;4.70;;;;;;;9.38;100.00;97911.69;5027564;28;102236;-65
2022/11/12 10:07:32;;;;;;;5.23;4.73;;;;;;;9.56;100.00;97906.56;5030142;28;101917;-65
2022/11/12 10:10:31;;;;;;;5.83;5.33;;;;;;;9.55;100.00;97904.94;5028621;28;102012;-65
2022/11/12 10:14:07;;;;;;;6.10;5.50;;;;;;;9.61;100.00;97896.13;5027802;28;102288;-65
2022/11/12 10:16:58;;;;;;;5.93;5.30;;;;;;;9.85;100.00;97898.09;5028511;28;101687;-65
2022/11/12 10:20:33;;;;;;;5.40;4.90;;;;;;;9.83;100.00;97889.53;5028419;28;102048;-65
2022/11/12 10:23:27;;;;;;;5.37;4.93;;;;;;;9.89;100.00;97897.50;5027693;28;103490;-65
2022/11/12 10:26:16;;;;;;;8.80;5.00;;;;;;;10.15;100.00;97896.59;5028378;28;101683;-65
2022/11/12 10:29:13;;;;;;;5.87;5.37;;;;;;;10.06;100.00;97882.72;5024720;28;103081;-65
2022/11/12 10:32:18;;;;;;;6.57;5.97;;;;;;;10.38;100.00;97892.41;5027917;28;101753;-65
2022/11/12 10:35:08;;;;;;;6.70;6.10;;;;;;;10.90;100.00;97883.28;5027978;28;102201;-65
2022/11/12 10:37:58;;;;;;;7.20;6.60;;;;;;;11.14;100.00;97871.81;5027425;28;102449;-65
2022/11/12 10:40:43;;;;;;;7.17;6.57;;;;;;;11.05;100.00;97871.28;5028132;28;101715;-65
2022/11/12 10:43:32;;;;;;;6.93;6.33;;;;;;;11.24;100.00;97864.16;5027884;28;102161;-65
2022/11/12 10:46:19;;;;;;;7.80;7.10;;;;;;;11.10;100.00;97849.31;5019113;28;102232;-65
2022/11/12 10:49:07;;;;;;;7.77;7.07;;;;;;;11.03;100.00;97857.38;5027770;28;101759;-65
2022/11/12 10:52:22;;;;;;;8.00;7.30;;;;;;;11.23;100.00;97843.91;5028054;28;102056;-65
2022/11/12 10:55:16;;;;;;;7.63;6.93;;;;;;;11.37;100.00;97848.03;5029434;27;102250;-65
2022/11/12 10:58:15;;;;;;;8.80;7.90;;;;;;;11.47;100.00;97843.03;5027984;28;102175;-65
2022/11/12 11:01:06;;;;;;;8.23;7.53;;;;;;;11.37;100.00;97846.22;5026591;28;102235;-68
2022/11/12 11:04:01;;;;;;;7.63;6.93;;;;;;;11.71;100.00;97839.50;5027423;28;101970;-65
2022/11/12 11:07:20;;;;;;;8.10;7.40;;;;;;;11.77;100.00;97834.13;5028060;28;102575;-67
2022/11/12 11:10:22;;;;;;;7.73;7.13;;;;;;;11.66;100.00;97839.41;5006199;28;102244;-66
2022/11/12 11:13:27;;;;;;;7.53;6.87;;;;;;;11.82;100.00;97841.47;5006963;28;102057;-67
2022/11/12 11:16:16;;;;;;;7.57;6.87;;;;;;;12.25;100.00;97837.63;5007096;28;102091;-66
2022/11/12 11:19:05;;;;;;;7.70;7.10;;;;;;;11.98;100.00;97833.66;5006642;28;101765;-64
2022/11/12 11:22:46;;;;;;;7.63;6.93;;;;;;;11.64;100.00;97828.13;5010662;28;102032;-64
2022/11/12 11:25:35;;;;;;;7.27;6.67;;;;;;;11.67;100.00;97825.03;5006499;28;102266;-64
2022/11/12 11:28:37;;;;;;;7.70;7.00;;;;;;;11.97;100.00;97823.22;5020429;28;101759;-64
2022/11/12 11:32:07;;;;;;;7.40;6.80;;;;;;;12.00;100.00;97812.13;5027027;28;102051;-64
2022/11/12 11:35:30;;;;;;;6.57;5.93;;;;;;;12.37;100.00;97825.16;5006551;28;102296;-64
2022/11/12 11:38:35;;;;;;;6.47;5.97;;;;;;;12.86;100.00;97821.34;5019873;28;101776;-64
2022/11/12 11:41:51;;;;;;;6.50;5.90;;;;;;;13.17;100.00;97808.50;5026977;28;102020;-64
2022/11/12 11:44:45;;;;;;;6.07;5.47;;;;;;;13.30;100.00;97810.16;5006302;28;102235;-66
2022/11/12 11:47:43;;;;;;;6.27;5.67;;;;;;;13.60;100.00;97806.28;5006995;28;101768;-64
2022/11/12 11:50:30;;;;;;;6.00;5.50;;;;;;;13.61;100.00;97807.06;5009382;28;102018;-64
2022/11/12 11:53:23;;;;;;;5.60;5.10;;;;;;;13.87;100.00;97796.69;5006836;28;101672;-64
2022/11/12 11:56:19;;;;;;;6.00;5.50;;;;;;;13.47;100.00;97792.34;5025398;28;103324;-64
2022/11/12 11:59:17;;;;;;;5.30;4.90;;;;;;;13.83;100.00;97790.19;5026318;28;102289;-64
2022/11/12 12:02:39;;;;;;;6.10;5.57;;;;;;;13.66;100.00;97783.94;5026831;28;101751;-64
2022/11/12 12:05:39;;;;;;;5.23;4.83;;;;;;;13.82;100.00;97782.41;5026966;28;102060;-64
2022/11/12 12:08:36;;;;;;;5.40;4.90;;;;;;;13.66;100.00;97783.13;5029425;28;101762;-64
2022/11/12 12:11:28;;;;;;;5.07;4.67;;;;;;;13.91;100.00;97781.00;5031934;28;102087;-64
2022/11/12 12:14:41;;;;;;;5.10;4.70;;;;;;;14.08;100.00;97777.34;5029697;28;102170;-64
2022/11/12 12:17:44;;;;;;;5.40;4.90;;;;;;;14.06;100.00;97765.25;5012362;28;102197;-65
2022/11/12 12:20:37;;;;;;;4.90;4.50;;;;;;;14.53;100.00;97759.44;5010151;28;102062;-65
2022/11/12 12:23:32;;;;;;;4.80;4.50;;;;;;;14.48;100.00;97759.34;5029060;28;102433;-65
2022/11/12 12:26:24;;;;;;;4.90;4.50;;;;;;;14.71;100.00;97750.38;5009589;28;101706;-65
2022/11/12 12:29:14;;;;;;;5.07;4.67;;;;;;;14.68;100.00;97751.69;5014440;28;102078;-64
2022/11/12 12:32:06;;;;;;;4.70;4.30;;;;;;;14.62;100.00;97747.28;5028997;28;102241;-64
2022/11/12 12:35:25;;;;;;;5.27;4.87;;;;;;;14.48;100.00;97742.47;5029861;28;101948;-64
2022/11/12 12:38:15;;;;;;;4.87;4.47;;;;;;;14.75;100.00;97740.78;5009482;28;102015;-65
2022/11/12 12:41:07;;;;;;;5.20;4.70;;;;;;;14.79;100.00;97736.56;5012412;28;102231;-66
2022/11/12 12:44:03;;;;;;;4.67;4.27;;;;;;;14.40;100.00;97732.19;5011483;28;102092;-65
2022/11/12 12:46:55;;;;;;;4.30;4.00;;;;;;;14.46;100.00;97726.69;5031739;28;102242;-65
2022/11/12 12:49:42;;;;;;;5.23;4.83;;;;;;;14.56;100.00;97728.69;5029364;28;101742;-65
2022/11/12 12:52:29;;;;;;;4.67;4.27;;;;;;;14.52;100.00;97724.88;5029815;28;102080;-65
2022/11/12 12:55:37;;;;;;;4.40;4.10;;;;;;;14.44;100.00;97717.25;5028913;28;103235;-65
2022/11/12 12:58:28;;;;;;;4.50;4.10;;;;;;;14.42;100.00;97719.34;5029832;28;101786;-65
2022/11/12 13:01:30;;;;;;;4.70;4.30;;;;;;;14.14;100.00;97724.72;5009561;28;102089;-65
2022/11/12 13:04:16;;;;;;;4.97;4.47;;;;;;;13.99;100.00;97727.94;5014455;28;102219;-65
2022/11/12 13:07:07;;;;;;;4.33;4.00;;;;;;;13.86;100.00;97724.72;5032892;28;101881;-65
2022/11/12 13:09:53;;;;;;;4.60;4.20;;;;;;;13.88;100.00;97717.25;5028435;28;102648;-65
2022/11/12 13:13:04;;;;;;;4.27;3.97;;;;;;;13.98;100.00;97706.75;5029346;28;101934;-65
2022/11/12 13:15:53;;;;;;;4.73;4.30;;;;;;;13.94;100.00;97708.28;5031477;28;101789;-65
2022/11/12 13:19:01;;;;;;;4.97;4.57;;;;;;;13.79;100.00;97705.34;5028299;28;102306;-65
2022/11/12 13:21:47;;;;;;;4.27;3.97;;;;;;;13.70;100.00;97706.75;5029121;28;102006;-65
2022/11/12 13:25:02;;;;;;;4.60;4.23;;;;;;;13.56;100.00;97698.19;5028905;28;101774;-65
2022/11/12 13:28:11;;;;;;;5.27;4.70;;;;;;;12.94;100.00;97695.50;5028412;28;102241;-66
2022/11/12 13:31:03;;;;;;;4.97;4.57;;;;;;;12.96;100.00;97698.78;5028925;28;101754;-65
2022/11/12 13:33:51;;;;;;;5.10;4.60;;;;;;;12.86;100.00;97691.31;5031599;28;102016;-65
2022/11/12 13:37:01;;;;;;;5.60;5.03;;;;;;;12.98;100.00;97691.34;5029308;28;102141;-65
2022/11/12 13:39:46;;;;;;;5.73;5.23;;;;;;;12.97;100.00;97700.41;5029270;28;102064;-65
2022/11/12 13:43:05;;;;;;;5.30;4.90;;;;;;;12.84;100.00;97689.94;5028132;28;101901;-66
2022/11/12 13:45:55;;;;;;;4.93;4.50;;;;;;;12.77;100.00;97692.72;5030039;28;101742;-66
2022/11/12 13:48:44;;;;;;;5.57;5.07;;;;;;;13.04;100.00;97685.06;5028925;28;102037;-65
2022/11/12 13:51:55;;;;;;;5.30;4.80;;;;;;;12.93;100.00;97683.19;5028058;28;102282;-66
2022/11/12 13:54:43;;;;;;;5.40;4.90;;;;;;;12.88;100.00;97685.75;5028465;28;101726;-65
2022/11/12 13:57:31;;;;;;;5.53;5.13;;;;;;;12.40;100.00;97677.16;5028526;28;102129;-65
2022/11/12 14:00:23;;;;;;;5.33;4.93;;;;;;;12.17;100.00;97685.13;5031623;28;102325;-66
2022/11/12 14:03:20;;;;;;;5.60;5.03;;;;;;;11.89;100.00;97679.59;5028427;28;101825;-66
2022/11/12 14:06:19;;;;;;;6.07;5.57;;;;;;;11.83;100.00;97677.84;5027724;28;102248;-66
2022/11/12 14:09:32;;;;;;;6.37;5.10;;;;;;;11.72;100.00;97675.94;5028533;28;101814;-66
2022/11/12 14:12:58;;;;;;;5.83;5.27;;;;;;;11.69;100.00;97676.38;5030811;27;102208;-66
2022/11/12 14:16:00;;;;;;;5.83;5.30;;;;;;;11.61;100.00;97663.38;5027630;28;102288;-65
2022/11/12 14:19:04;;;;;;;5.70;5.30;;;;;;;11.58;100.00;97672.59;5028108;28;101881;-66
2022/11/12 14:22:13;;;;;;;6.33;5.73;;;;;;;11.37;100.00;97673.09;5028246;28;102042;-65
2022/11/12 14:25:01;;;;;;;6.03;5.53;;;;;;;11.41;100.00;97670.78;5027595;28;101747;-66